createdAt,value
2023-04-15T00:00:58.885Z,6.25
2023-04-15T00:03:25.885Z,7.43
2023-04-15T00:05:52.750Z,7.22
2023-04-15T00:08:20.422Z,7.33
2023-04-15T00:10:46.951Z,6.85
2023-04-15T00:13:13.589Z,6.82
2023-04-15T00:15:40.066Z,7.93
2023-04-15T00:18:08.245Z,7.57
2023-04-15T00:20:35.326Z,6.67
2023-04-15T00:23:04.132Z,6.45
2023-04-15T00:25:30.901Z,7.13
2023-04-15T00:27:57.497Z,7.38
2023-04-15T00:30:24.087Z,7.03
2023-04-15T00:32:50.871Z,7.13
2023-04-15T00:35:17.468Z,6.30
2023-04-15T00:37:46.018Z,6.80
2023-04-15T00:40:13.736Z,8.25
2023-04-15T00:42:40.736Z,6.97
2023-04-15T00:45:08.775Z,6.67
2023-04-15T00:47:37.262Z,7.07
2023-04-15T00:50:03.989Z,7.78
2023-04-15T00:52:30.753Z,7.05
2023-04-15T00:54:57.710Z,7.53
2023-04-15T00:57:24.466Z,8.23
2023-04-15T00:59:52.746Z,8.07
2023-04-15T01:02:19.907Z,7.75
2023-04-15T01:04:47.058Z,6.82
2023-04-15T01:07:13.580Z,7.85
2023-04-15T01:09:40.681Z,7.10
2023-04-15T01:12:08.670Z,8.70
2023-04-15T01:14:35.199Z,8.98
2023-04-15T01:17:02.256Z,8.43
2023-04-15T01:19:29.089Z,8.18
2023-04-15T01:21:56.393Z,8.13
2023-04-15T01:24:24.064Z,8.15
2023-04-15T01:26:50.545Z,9.35
2023-04-15T01:29:18.002Z,8.57
2023-04-15T01:31:55.969Z,10.15
2023-04-15T01:34:22.617Z,7.60
2023-04-15T01:36:49.092Z,8.57
2023-04-15T01:39:15.919Z,8.20
2023-04-15T01:41:42.421Z,8.50
2023-04-15T01:44:09.168Z,8.68
2023-04-15T01:46:37.088Z,8.57
2023-04-15T01:49:03.640Z,7.88
2023-04-15T01:51:30.185Z,9.65
2023-04-15T01:53:57.092Z,9.13
2023-04-15T01:56:26.873Z,7.93
2023-04-15T01:58:53.449Z,8.60
2023-04-15T02:01:20.236Z,8.35
2023-04-15T02:03:47.896Z,8.30
2023-04-15T02:06:14.790Z,9.18
2023-04-15T02:08:41.355Z,9.00
2023-04-15T02:11:08.268Z,9.13
2023-04-15T02:13:34.733Z,9.55
2023-04-15T02:16:01.506Z,9.73
2023-04-15T02:18:28.076Z,9.20
2023-04-15T02:20:54.654Z,8.63
2023-04-15T02:23:21.175Z,9.30
2023-04-15T02:25:53.773Z,9.30
2023-04-15T02:28:21.903Z,9.35
2023-04-15T02:30:52.668Z,9.45
2023-04-15T02:33:19.552Z,10.10
2023-04-15T02:35:46.073Z,9.60
2023-04-15T02:38:12.635Z,9.48
2023-04-15T02:40:39.218Z,8.57
2023-04-15T02:43:07.053Z,10.07
2023-04-15T02:45:33.686Z,8.90
2023-04-15T02:48:03.886Z,9.63
2023-04-15T02:50:31.639Z,9.18
2023-04-15T02:52:58.128Z,9.68
2023-04-15T02:55:24.688Z,10.57
2023-04-15T02:57:51.461Z,10.23
2023-04-15T03:00:17.966Z,9.80
2023-04-15T03:02:47.372Z,10.48
2023-04-15T03:05:14.769Z,10.32
2023-04-15T03:07:41.185Z,9.68
2023-04-15T03:10:08.764Z,10.48
2023-04-15T03:12:35.278Z,9.47
2023-04-15T03:15:02.156Z,8.93
2023-04-15T03:17:28.605Z,10.48
2023-04-15T03:19:55.494Z,9.85
2023-04-15T03:22:21.996Z,9.57
2023-04-15T03:24:48.553Z,10.00
2023-04-15T03:27:14.998Z,9.57
2023-04-15T03:29:41.524Z,9.25
2023-04-15T03:32:07.984Z,9.10
2023-04-15T03:34:34.445Z,10.48
2023-04-15T03:37:01.023Z,9.60
2023-04-15T03:39:27.483Z,10.20
2023-04-15T03:41:53.971Z,10.45
2023-04-15T03:44:20.384Z,10.40
2023-04-15T03:46:46.893Z,11.98
2023-04-15T03:49:14.174Z,11.03
2023-04-15T03:51:40.730Z,10.25
2023-04-15T03:54:07.218Z,10.40
2023-04-15T03:56:33.699Z,10.70
2023-04-15T03:59:00.604Z,10.57
2023-04-15T04:01:27.253Z,10.03
2023-04-15T04:03:53.857Z,10.45
2023-04-15T04:06:20.559Z,11.75
2023-04-15T04:08:47.037Z,11.32
2023-04-15T04:11:13.523Z,10.85
2023-04-15T04:13:40.662Z,10.70
2023-04-15T04:16:07.268Z,9.73
2023-04-15T04:18:33.957Z,11.02
2023-04-15T04:21:00.666Z,11.93
2023-04-15T04:23:27.165Z,10.75
2023-04-15T04:25:53.674Z,11.43
2023-04-15T04:28:20.104Z,10.93
2023-04-15T04:30:46.625Z,10.70
2023-04-15T04:33:13.258Z,11.55
2023-04-15T04:35:39.777Z,11.57
2023-04-15T04:38:06.333Z,11.57
2023-04-15T04:40:32.831Z,11.82
2023-04-15T04:42:59.354Z,11.75
2023-04-15T04:45:25.819Z,12.55
2023-04-15T04:47:52.365Z,11.80
2023-04-15T04:50:18.892Z,12.10
2023-04-15T04:52:45.392Z,12.27
2023-04-15T04:55:12.449Z,11.20
2023-04-15T04:57:42.240Z,11.48
2023-04-15T05:00:09.339Z,10.60
2023-04-15T05:02:36.206Z,11.80
2023-04-15T05:05:02.805Z,10.63
2023-04-15T05:07:29.252Z,11.27
2023-04-15T05:09:55.914Z,11.18
2023-04-15T05:12:22.539Z,11.48
2023-04-15T05:14:48.998Z,10.33
2023-04-15T05:17:15.511Z,12.70
2023-04-15T05:19:42.077Z,11.30
2023-04-15T05:22:08.676Z,11.80
2023-04-15T05:24:35.182Z,11.23
2023-04-15T05:27:02.159Z,11.40
2023-04-15T05:29:29.000Z,11.73
2023-04-15T05:31:56.037Z,12.15
2023-04-15T05:34:22.922Z,11.73
2023-04-15T05:36:49.484Z,11.10
2023-04-15T05:39:16.164Z,10.90
2023-04-15T05:41:42.657Z,11.52
2023-04-15T05:44:09.188Z,12.68
2023-04-15T05:46:37.226Z,11.20
2023-04-15T05:49:04.052Z,10.93
2023-04-15T05:51:31.394Z,10.87
2023-04-15T05:53:57.868Z,10.88
2023-04-15T05:56:26.767Z,11.38
2023-04-15T05:58:53.920Z,11.48
2023-04-15T06:01:20.691Z,11.73
2023-04-15T06:03:47.286Z,12.67
2023-04-15T06:06:14.335Z,11.57
2023-04-15T06:08:41.300Z,11.95
2023-04-15T06:11:07.762Z,11.60
2023-04-15T06:13:35.063Z,11.98
2023-04-15T06:16:01.621Z,11.27
2023-04-15T06:18:28.104Z,11.13
2023-04-15T06:20:54.579Z,11.52
2023-04-15T06:23:21.209Z,10.88
2023-04-15T06:25:47.931Z,11.18
2023-04-15T06:28:14.368Z,12.00
2023-04-15T06:30:41.123Z,10.93
2023-04-15T06:33:07.619Z,12.90
2023-04-15T06:35:34.171Z,12.10
2023-04-15T06:38:00.710Z,11.13
2023-04-15T06:40:27.785Z,11.63
2023-04-15T06:42:54.991Z,12.48
2023-04-15T06:45:21.517Z,11.48
2023-04-15T06:47:48.065Z,11.82
2023-04-15T06:50:14.599Z,12.38
2023-04-15T06:52:41.523Z,11.17
2023-04-15T06:55:08.769Z,12.13
2023-04-15T06:57:35.341Z,11.93
2023-04-15T07:00:02.326Z,11.75
2023-04-15T07:02:28.876Z,11.38
2023-04-15T07:04:55.574Z,10.70
2023-04-15T07:07:22.250Z,11.73
2023-04-15T07:09:48.771Z,12.02
2023-04-15T07:12:15.286Z,12.15
2023-04-15T07:14:42.248Z,11.82
2023-04-15T07:17:09.699Z,11.97
2023-04-15T07:19:36.557Z,11.93
2023-04-15T07:22:03.011Z,11.32
2023-04-15T07:24:30.026Z,10.75
2023-04-15T07:27:01.044Z,11.50
2023-04-15T07:29:27.951Z,10.53
2023-04-15T07:31:54.421Z,11.25
2023-04-15T07:34:21.104Z,10.90
2023-04-15T07:36:50.630Z,10.27
2023-04-15T07:39:20.172Z,10.32
2023-04-15T07:41:46.658Z,9.80
2023-04-15T07:44:13.263Z,9.65
2023-04-15T07:46:39.842Z,9.50
2023-04-15T07:49:07.483Z,9.80
2023-04-15T07:51:34.110Z,9.05
2023-04-15T07:54:00.588Z,9.83
2023-04-15T07:56:27.141Z,10.43
2023-04-15T07:58:53.608Z,10.10
2023-04-15T08:01:20.303Z,11.40
2023-04-15T08:03:47.290Z,9.13
2023-04-15T08:06:14.237Z,9.73
2023-04-15T08:08:40.708Z,8.85
2023-04-15T08:11:07.200Z,10.13
2023-04-15T08:13:33.664Z,9.70
2023-04-15T08:16:14.233Z,8.65
2023-04-15T08:18:40.732Z,9.07
2023-04-15T08:21:07.357Z,7.72
2023-04-15T08:23:34.612Z,8.00
2023-04-15T08:26:01.523Z,7.72
2023-04-15T08:28:27.989Z,7.88
2023-04-15T08:30:54.557Z,7.43
2023-04-15T08:33:21.357Z,7.68
2023-04-15T08:35:49.153Z,7.90
2023-04-15T08:38:15.642Z,7.65
2023-04-15T08:40:44.342Z,7.95
2023-04-15T08:43:15.769Z,7.37
2023-04-15T08:45:44.174Z,7.35
2023-04-15T08:48:16.849Z,6.68
2023-04-15T08:50:43.921Z,6.10
2023-04-15T08:53:11.706Z,5.95
2023-04-15T08:55:45.977Z,5.53
2023-04-15T08:58:13.693Z,6.07
2023-04-15T09:00:41.388Z,5.93
2023-04-15T09:03:09.276Z,5.93
2023-04-15T09:05:37.175Z,6.38
2023-04-15T09:08:05.528Z,5.50
2023-04-15T09:10:33.505Z,5.68
2023-04-15T09:13:01.110Z,5.00
2023-04-15T09:15:29.493Z,4.88
2023-04-15T09:17:59.090Z,5.32
2023-04-15T09:20:25.584Z,5.00
2023-04-15T09:22:52.354Z,4.95
2023-04-15T09:25:21.834Z,5.15
2023-04-15T09:27:53.915Z,4.22
2023-04-15T09:30:20.688Z,5.30
2023-04-15T09:32:50.468Z,4.93
2023-04-15T09:35:17.354Z,5.13
2023-04-15T09:37:43.830Z,4.80
2023-04-15T09:40:11.024Z,5.93
2023-04-15T09:42:38.064Z,4.78
2023-04-15T09:45:13.633Z,4.80
2023-04-15T09:47:40.503Z,4.88
2023-04-15T09:50:07.575Z,5.22
2023-04-15T09:52:34.251Z,5.65
2023-04-15T09:55:00.993Z,5.45
2023-04-15T09:57:35.397Z,4.87
2023-04-15T10:00:06.585Z,5.20
2023-04-15T10:02:33.631Z,5.07
2023-04-15T10:05:04.169Z,5.38
2023-04-15T10:07:30.906Z,5.63
2023-04-15T10:09:59.859Z,5.10
2023-04-15T10:12:27.444Z,5.25
2023-04-15T10:14:59.506Z,5.53
2023-04-15T10:17:35.220Z,4.90
2023-04-15T10:20:04.636Z,5.13
2023-04-15T10:22:32.922Z,4.43
2023-04-15T10:25:02.435Z,5.00
2023-04-15T10:27:29.237Z,5.70
2023-04-15T10:29:57.233Z,5.80
2023-04-15T10:32:25.497Z,5.07
2023-04-15T10:34:54.414Z,4.77
2023-04-15T10:37:23.517Z,4.45
2023-04-15T10:39:50.735Z,5.57
2023-04-15T10:42:19.312Z,4.60
2023-04-15T10:44:51.488Z,4.90
2023-04-15T10:47:21.117Z,4.83
2023-04-15T10:49:50.576Z,4.20
2023-04-15T10:52:22.811Z,4.88
2023-04-15T10:54:49.297Z,3.90
2023-04-15T10:57:23.581Z,3.83
2023-04-15T10:59:59.105Z,4.17
2023-04-15T11:02:42.467Z,4.43
2023-04-15T11:05:10.925Z,4.32
2023-04-15T11:07:41.708Z,4.07
2023-04-15T11:10:13.945Z,4.60
2023-04-15T11:12:41.834Z,4.33
2023-04-15T11:15:33.286Z,3.97
2023-04-15T11:18:12.745Z,3.70
2023-04-15T11:20:41.486Z,4.32
2023-04-15T11:23:14.334Z,4.25
2023-04-15T11:25:43.451Z,4.10
2023-04-15T11:28:11.959Z,3.72
2023-04-15T11:30:39.364Z,4.63
2023-04-15T11:33:12.315Z,4.07
2023-04-15T11:35:40.945Z,3.65
2023-04-15T11:38:12.924Z,3.63
2023-04-15T11:40:40.334Z,3.78
2023-04-15T11:43:10.722Z,3.60
2023-04-15T11:45:38.996Z,3.35
2023-04-15T11:48:07.767Z,3.75
2023-04-15T11:50:34.840Z,3.20
2023-04-15T11:53:03.676Z,3.03
2023-04-15T11:55:31.791Z,3.33
2023-04-15T11:58:16.533Z,2.88
2023-04-15T12:00:48.764Z,2.67
2023-04-15T12:03:43.427Z,2.90
2023-04-15T12:06:17.665Z,3.03
2023-04-15T12:09:12.429Z,3.08
2023-04-15T12:11:49.936Z,2.70
2023-04-15T12:14:30.511Z,2.90
2023-04-15T12:16:59.970Z,2.83
2023-04-15T12:19:41.856Z,3.08
2023-04-15T12:22:16.408Z,2.95
2023-04-15T12:24:46.993Z,2.67
2023-04-15T12:27:15.002Z,2.83
2023-04-15T12:29:43.203Z,3.40
2023-04-15T12:32:11.660Z,2.58
2023-04-15T12:34:43.498Z,2.50
2023-04-15T12:37:13.152Z,2.40
2023-04-15T12:39:41.804Z,2.60
2023-04-15T12:42:09.521Z,2.40
2023-04-15T12:44:37.400Z,2.10
2023-04-15T12:47:04.572Z,2.42
2023-04-15T12:49:32.793Z,2.28
2023-04-15T12:52:01.046Z,2.58
2023-04-15T12:54:28.627Z,2.77
2023-04-15T12:56:55.779Z,2.20
2023-04-15T12:59:24.037Z,2.38
2023-04-15T13:01:52.423Z,2.08
2023-04-15T13:04:20.175Z,2.50
2023-04-15T13:06:46.842Z,2.43
2023-04-15T13:09:13.403Z,2.75
2023-04-15T13:11:40.031Z,2.10
2023-04-15T13:14:09.310Z,2.00
2023-04-15T13:16:36.220Z,2.38
2023-04-15T13:19:03.938Z,2.10
2023-04-15T13:21:34.981Z,2.13
2023-04-15T13:24:02.112Z,1.70
2023-04-15T13:26:29.157Z,2.10
2023-04-15T13:28:56.202Z,1.67
2023-04-15T13:31:22.691Z,1.80
2023-04-15T13:33:49.188Z,2.53
2023-04-15T13:36:15.883Z,2.35
2023-04-15T13:38:42.533Z,2.42
2023-04-15T13:41:09.047Z,2.47
2023-04-15T13:43:35.801Z,2.40
2023-04-15T13:46:02.724Z,1.77
2023-04-15T13:48:29.261Z,2.05
2023-04-15T13:50:55.775Z,2.08
2023-04-15T13:53:28.178Z,2.38
2023-04-15T13:56:07.256Z,2.30
2023-04-15T13:58:33.868Z,2.22
2023-04-15T14:01:00.888Z,2.42
2023-04-15T14:03:28.719Z,2.30
2023-04-15T14:05:56.929Z,2.55
2023-04-15T14:08:25.030Z,1.90
2023-04-15T14:10:51.484Z,1.85
2023-04-15T14:13:19.523Z,2.20
2023-04-15T14:15:46.601Z,1.85
2023-04-15T14:18:13.182Z,2.28
2023-04-15T14:20:39.660Z,1.93
2023-04-15T14:23:06.193Z,2.28
2023-04-15T14:25:34.029Z,2.47
2023-04-15T14:28:01.477Z,2.53
2023-04-15T14:30:28.001Z,2.78
2023-04-15T14:32:54.533Z,2.40
2023-04-15T14:35:21.234Z,2.38
2023-04-15T14:37:47.709Z,2.30
2023-04-15T14:40:14.728Z,2.50
2023-04-15T14:42:41.256Z,3.20
2023-04-15T14:45:08.353Z,3.10
2023-04-15T14:47:34.955Z,3.90
2023-04-15T14:50:02.359Z,3.40
2023-04-15T14:52:28.915Z,3.78
2023-04-15T14:54:55.724Z,3.50
2023-04-15T14:57:22.197Z,3.83
2023-04-15T14:59:48.631Z,3.80
2023-04-15T15:02:26.234Z,4.18
2023-04-15T15:05:02.205Z,3.75
2023-04-15T15:07:28.851Z,3.15
2023-04-15T15:09:56.333Z,3.23
2023-04-15T15:12:23.539Z,2.90
2023-04-15T15:14:50.022Z,2.95
2023-04-15T15:17:18.467Z,3.05
2023-04-15T15:19:45.155Z,2.65
2023-04-15T15:22:11.687Z,2.97
2023-04-15T15:24:38.145Z,2.35
2023-04-15T15:27:04.992Z,2.42
2023-04-15T15:29:31.478Z,2.80
2023-04-15T15:31:57.958Z,3.40
2023-04-15T15:34:24.446Z,3.07
2023-04-15T15:36:50.979Z,3.45
2023-04-15T15:39:17.498Z,2.72
2023-04-15T15:41:44.039Z,3.20
2023-04-15T15:44:10.680Z,3.08
2023-04-15T15:46:37.161Z,3.17
2023-04-15T15:49:04.255Z,2.70
2023-04-15T15:51:32.006Z,3.45
2023-04-15T15:53:58.649Z,3.13
2023-04-15T15:56:25.272Z,4.22
2023-04-15T15:58:51.860Z,4.13
2023-04-15T16:01:18.542Z,4.47
2023-04-15T16:03:45.096Z,3.60
2023-04-15T16:06:11.694Z,4.47
2023-04-15T16:08:38.225Z,6.57
2023-04-15T16:11:04.725Z,6.07
2023-04-15T16:13:31.232Z,4.10
2023-04-15T16:15:57.734Z,4.20
2023-04-15T16:18:24.227Z,4.40
2023-04-15T16:20:50.896Z,4.43
2023-04-15T16:23:17.587Z,3.97
2023-04-15T16:25:44.829Z,4.38
2023-04-15T16:28:23.079Z,4.90
2023-04-15T16:30:52.827Z,4.65
2023-04-15T16:33:19.297Z,4.50
2023-04-15T16:35:45.906Z,6.43
2023-04-15T16:38:12.567Z,4.38
2023-04-15T16:40:39.070Z,4.90
2023-04-15T16:43:07.432Z,4.78
2023-04-15T16:45:33.931Z,4.35
2023-04-15T16:48:00.496Z,4.17
2023-04-15T16:50:27.263Z,5.15
2023-04-15T16:52:54.357Z,4.72
2023-04-15T16:55:20.903Z,5.55
2023-04-15T16:58:02.562Z,5.90
2023-04-15T17:00:31.405Z,6.87
2023-04-15T17:02:58.945Z,5.90
2023-04-15T17:05:27.509Z,7.47
2023-04-15T17:07:54.238Z,5.55
2023-04-15T17:10:20.832Z,5.72
2023-04-15T17:12:47.307Z,10.00
2023-04-15T17:15:13.830Z,4.95
2023-04-15T17:17:40.361Z,6.85
2023-04-15T17:20:07.987Z,6.47
2023-04-15T17:22:34.591Z,5.28
2023-04-15T17:25:01.104Z,4.27
2023-04-15T17:27:28.875Z,4.72
2023-04-15T17:29:55.530Z,4.60
2023-04-15T17:32:22.716Z,3.95
2023-04-15T17:34:51.423Z,4.43
2023-04-15T17:37:18.461Z,3.80
2023-04-15T17:39:45.378Z,4.38
2023-04-15T17:42:12.868Z,4.68
2023-04-15T17:44:39.957Z,4.00
2023-04-15T17:47:06.787Z,4.60
2023-04-15T17:49:34.305Z,4.27
2023-04-15T17:52:01.175Z,3.97
2023-04-15T17:54:28.014Z,3.25
2023-04-15T17:56:54.614Z,4.38
2023-04-15T17:59:21.330Z,5.70
2023-04-15T18:01:48.031Z,5.10
2023-04-15T18:04:14.928Z,4.32
2023-04-15T18:06:41.741Z,5.90
2023-04-15T18:09:09.080Z,4.13
2023-04-15T18:11:35.713Z,4.35
2023-04-15T18:14:04.063Z,3.73
2023-04-15T18:16:31.000Z,4.93
2023-04-15T18:18:57.635Z,4.70
2023-04-15T18:21:24.184Z,4.40
2023-04-15T18:23:50.727Z,4.47
2023-04-15T18:26:17.263Z,4.53
2023-04-15T18:28:43.791Z,4.05
2023-04-15T18:31:10.368Z,4.65
2023-04-15T18:33:36.891Z,4.97
2023-04-15T18:36:03.668Z,5.30
2023-04-15T18:38:30.298Z,4.23
2023-04-15T18:40:56.793Z,12.43
2023-04-15T18:43:23.273Z,5.13
2023-04-15T18:45:51.859Z,4.22
2023-04-15T18:48:18.346Z,4.85
2023-04-15T18:50:44.849Z,4.40
2023-04-15T18:53:11.422Z,3.90
2023-04-15T18:55:39.641Z,3.70
2023-04-15T18:58:08.845Z,7.38
2023-04-15T19:00:38.937Z,4.22
2023-04-15T19:03:06.550Z,3.50
2023-04-15T19:05:33.639Z,3.75
2023-04-15T19:08:00.508Z,3.80
2023-04-15T19:10:28.136Z,3.42
2023-04-15T19:12:55.430Z,4.63
2023-04-15T19:15:22.033Z,4.63
2023-04-15T19:17:48.565Z,3.80
2023-04-15T19:20:15.224Z,4.55
2023-04-15T19:22:43.138Z,5.32
2023-04-15T19:25:10.291Z,4.47
2023-04-15T19:27:38.267Z,7.00
2023-04-15T19:30:07.018Z,4.75
2023-04-15T19:32:34.290Z,4.22
2023-04-15T19:35:00.807Z,4.90
2023-04-15T19:37:27.434Z,4.80
2023-04-15T19:39:55.697Z,4.90
2023-04-15T19:42:22.159Z,4.75
2023-04-15T19:44:48.643Z,5.18
2023-04-15T19:47:15.491Z,4.20
2023-04-15T19:49:42.007Z,4.40
2023-04-15T19:52:08.917Z,5.10
2023-04-15T19:54:35.487Z,4.88
2023-04-15T19:57:02.148Z,4.20
2023-04-15T19:59:28.651Z,4.40
2023-04-15T20:01:55.412Z,4.70
2023-04-15T20:04:22.590Z,5.30
2023-04-15T20:06:49.900Z,4.43
2023-04-15T20:09:16.675Z,5.18
2023-04-15T20:12:46.036Z,4.93
2023-04-15T20:14:29.877Z,4.72
2023-04-15T20:16:56.359Z,4.40
2023-04-15T20:19:22.864Z,4.35
2023-04-15T20:21:51.968Z,3.83
2023-04-15T20:24:20.237Z,4.40
2023-04-15T20:26:47.197Z,4.57
2023-04-15T20:29:14.129Z,4.20
2023-04-15T20:31:41.044Z,5.43
2023-04-15T20:34:09.944Z,4.43
2023-04-15T20:36:37.842Z,4.15
2023-04-15T20:39:04.498Z,5.13
2023-04-15T20:41:31.431Z,4.43
2023-04-15T20:43:57.960Z,4.55
2023-04-15T20:46:26.630Z,4.85
2023-04-15T20:48:54.026Z,4.95
2023-04-15T20:51:20.562Z,4.47
2023-04-15T20:53:47.121Z,5.00
2023-04-15T20:56:13.671Z,4.32
2023-04-15T20:58:40.182Z,5.03
2023-04-15T21:01:06.773Z,4.35
2023-04-15T21:03:33.605Z,4.28
2023-04-15T21:06:00.226Z,3.90
2023-04-15T21:08:29.677Z,5.25
2023-04-15T21:10:56.834Z,4.90
2023-04-15T21:13:24.159Z,4.53
2023-04-15T21:15:53.433Z,5.53
2023-04-15T21:18:23.767Z,5.77
2023-04-15T21:21:00.840Z,5.97
2023-04-15T21:23:30.971Z,4.32
2023-04-15T21:25:58.782Z,5.53
2023-04-15T21:28:27.869Z,4.90
2023-04-15T21:30:54.329Z,4.67
2023-04-15T21:33:20.883Z,4.10
2023-04-15T21:35:47.523Z,5.28
2023-04-15T21:38:14.494Z,4.90
2023-04-15T21:40:41.074Z,4.43
2023-04-15T21:43:08.183Z,4.30
2023-04-15T21:45:35.320Z,4.40
2023-04-15T21:48:07.647Z,4.63
2023-04-15T21:50:38.476Z,4.88
2023-04-15T21:53:07.791Z,4.18
2023-04-15T21:55:34.407Z,4.50
2023-04-15T21:58:00.887Z,5.60
2023-04-15T22:00:27.627Z,4.85
2023-04-15T22:02:54.140Z,4.75
2023-04-15T22:05:20.698Z,4.90
2023-04-15T22:07:47.238Z,4.97
2023-04-15T22:10:13.696Z,4.57
2023-04-15T22:12:41.777Z,5.03
2023-04-15T22:15:08.628Z,4.32
2023-04-15T22:17:35.115Z,4.28
2023-04-15T22:20:01.660Z,4.50
2023-04-15T22:22:44.334Z,4.50
2023-04-15T22:25:11.721Z,4.20
2023-04-15T22:27:38.310Z,4.88
2023-04-15T22:30:05.605Z,4.85
2023-04-15T22:32:32.077Z,4.60
2023-04-15T22:34:58.508Z,5.05
2023-04-15T22:37:25.047Z,5.10
2023-04-15T22:39:51.907Z,4.65
2023-04-15T22:42:18.373Z,5.07
2023-04-15T22:44:44.840Z,4.90
2023-04-15T22:47:11.274Z,4.32
2023-04-15T22:49:37.802Z,5.13
2023-04-15T22:52:04.415Z,4.35
2023-04-15T22:54:31.201Z,4.78
2023-04-15T22:56:57.905Z,4.53
2023-04-15T22:59:25.776Z,5.10
2023-04-15T23:01:52.762Z,5.05
2023-04-15T23:04:27.847Z,4.75
2023-04-15T23:06:54.718Z,5.00
2023-04-15T23:09:21.447Z,5.23
2023-04-15T23:11:48.016Z,5.18
2023-04-15T23:14:14.464Z,6.03
2023-04-15T23:16:41.009Z,4.75
2023-04-15T23:19:08.327Z,5.85
2023-04-15T23:21:35.386Z,5.23
2023-04-15T23:24:02.007Z,6.05
2023-04-15T23:26:28.611Z,5.68
2023-04-15T23:28:55.514Z,5.00
2023-04-15T23:31:22.097Z,5.03
2023-04-15T23:33:48.620Z,5.33
2023-04-15T23:36:15.080Z,5.15
2023-04-15T23:38:42.250Z,5.95
2023-04-15T23:41:09.875Z,5.85
2023-04-15T23:43:36.687Z,5.57
2023-04-15T23:46:03.503Z,5.67
2023-04-15T23:48:30.140Z,4.95
2023-04-15T23:50:56.571Z,6.07
2023-04-15T23:53:23.076Z,4.88
2023-04-15T23:55:49.581Z,5.45
2023-04-15T23:58:16.051Z,4.63
